Time,TemperatureF,DewpointF,PressureIn,WindDirection,WindDirectionDegrees,WindSpeedMPH,WindSpeedGustMPH,Humidity,HourlyPrecipIn,Conditions,Clouds,dailyrainin,SoftwareType,DateUTC
2013-07-13 00:00:00,58.1,46.0,30.65,NE,45,0.0,0.0,64,0.00,,---,0.00,VWS V14.01,2013-07-13 04:00:00,
2013-07-13 00:01:00,57.9,45.8,30.65,NE,45,0.0,0.0,64,0.00,,---,0.00,VWS V14.01,2013-07-13 04:01:00,
2013-07-13 00:02:00,57.9,45.8,30.65,NE,45,0.0,0.0,64,0.00,,---,0.00,VWS V14.01,2013-07-13 04:02:00,
2013-07-13 00:07:00,57.9,45.8,30.65,NE,45,0.0,0.0,64,0.00,,---,0.00,VWS V14.01,2013-07-13 04:07:00,
2013-07-13 00:12:00,57.7,46.1,30.65,NE,45,0.0,0.0,65,0.00,,---,0.00,VWS V14.01,2013-07-13 04:12:00,
2013-07-13 00:17:00,57.6,45.9,30.71,NE,45,0.0,0.0,65,0.00,,---,0.00,VWS V14.01,2013-07-13 04:17:00,
2013-07-13 00:22:00,57.6,45.9,30.71,NE,45,0.0,0.0,65,0.00,,---,0.00,VWS V14.01,2013-07-13 04:22:00,
2013-07-13 00:27:00,57.4,45.7,30.71,NE,45,0.0,0.0,65,0.00,,---,0.00,VWS V14.01,2013-07-13 04:27:00,
2013-07-13 00:32:00,57.4,45.7,30.71,NE,45,0.0,0.0,65,0.00,,---,0.00,VWS V14.01,2013-07-13 04:32:00,
2013-07-13 00:37:00,57.2,45.6,30.71,NE,45,0.0,0.0,65,0.00,,---,0.00,VWS V14.01,2013-07-13 04:37:00,
2013-07-13 00:42:00,57.2,45.6,30.71,NE,45,0.0,0.0,65,0.00,,---,0.00,VWS V14.01,2013-07-13 04:42:00,
2013-07-13 00:47:00,57.0,45.8,30.74,NE,45,0.0,0.0,66,0.00,,---,0.00,VWS V14.01,2013-07-13 04:47:00,
2013-07-13 00:52:00,56.8,45.6,30.74,NE,45,0.0,0.0,66,0.00,,---,0.00,VWS V14.01,2013-07-13 04:52:00,
2013-07-13 00:57:00,56.8,45.6,30.74,NE,45,0.0,0.0,66,0.00,,---,0.00,VWS V14.01,2013-07-13 04:57:00,
2013-07-13 01:02:00,56.7,45.8,30.74,NE,45,0.0,0.0,67,0.00,,---,0.00,VWS V14.01,2013-07-13 05:02:00,
2013-07-13 01:07:00,56.7,45.8,30.74,NE,45,0.0,0.0,67,0.00,,---,0.00,VWS V14.01,2013-07-13 05:07:00,
2013-07-13 01:12:00,56.5,45.7,30.74,NE,45,0.0,0.0,67,0.00,,---,0.00,VWS V14.01,2013-07-13 05:12:00,
2013-07-13 01:17:00,56.5,46.1,30.74,NE,45,0.0,0.0,68,0.00,,---,0.00,VWS V14.01,2013-07-13 05:17:00,
2013-07-13 01:22:00,56.5,46.1,30.74,NE,45,0.0,0.0,68,0.00,,---,0.00,VWS V14.01,2013-07-13 05:22:00,
2013-07-13 01:27:00,56.3,45.9,30.74,NE,45,0.0,0.0,68,0.00,,---,0.00,VWS V14.01,2013-07-13 05:27:00,
2013-07-13 01:32:00,56.3,45.9,30.71,NE,45,0.0,0.0,68,0.00,,---,0.00,VWS V14.01,2013-07-13 05:32:00,
2013-07-13 01:36:00,56.1,45.7,30.71,NE,45,0.0,0.0,68,0.00,,---,0.00,VWS V14.01,2013-07-13 05:36:00,
2013-07-13 01:41:00,56.1,45.7,30.71,NE,45,0.0,0.0,68,0.00,,---,0.00,VWS V14.01,2013-07-13 05:41:00,
2013-07-13 01:46:00,55.9,45.5,30.71,NE,45,0.0,0.0,68,0.00,,---,0.00,VWS V14.01,2013-07-13 05:46:00,
2013-07-13 01:51:00,55.8,45.4,30.71,NE,45,0.0,0.0,68,0.00,,---,0.00,VWS V14.01,2013-07-13 05:51:00,
2013-07-13 01:56:00,55.8,45.8,30.71,NE,45,0.0,0.0,69,0.00,,---,0.00,VWS V14.01,2013-07-13 05:56:00,
2013-07-13 02:01:00,55.6,45.2,30.71,NE,45,0.0,0.0,68,0.00,,---,0.00,VWS V14.01,2013-07-13 06:01:00,
2013-07-13 02:06:00,55.6,45.2,30.71,NE,45,0.0,0.0,68,0.00,,---,0.00,VWS V14.01,2013-07-13 06:06:00,
2013-07-13 02:11:00,55.4,45.4,30.71,NE,45,0.0,0.0,69,0.00,,---,0.00,VWS V14.01,2013-07-13 06:11:00,
2013-07-13 02:16:00,55.2,45.2,30.71,NE,45,0.0,0.0,69,0.00,,---,0.00,VWS V14.01,2013-07-13 06:16:00,
2013-07-13 02:21:00,55.2,45.2,30.71,NE,45,0.0,0.0,69,0.00,,---,0.00,VWS V14.01,2013-07-13 06:21:00,
2013-07-13 02:26:00,55.0,45.1,30.71,NE,45,0.0,0.0,69,0.00,,---,0.00,VWS V14.01,2013-07-13 06:26:00,
2013-07-13 02:31:00,54.9,44.9,30.68,NE,45,0.0,0.0,69,0.00,,---,0.00,VWS V14.01,2013-07-13 06:31:00,
2013-07-13 02:36:00,54.9,44.9,30.68,NE,45,0.0,0.0,69,0.00,,---,0.00,VWS V14.01,2013-07-13 06:36:00,
2013-07-13 02:41:00,54.9,44.9,30.68,NE,45,0.0,0.0,69,0.00,,---,0.00,VWS V14.01,2013-07-13 06:41:00,
2013-07-13 02:46:00,54.7,44.7,30.68,NE,45,0.0,0.0,69,0.00,,---,0.00,VWS V14.01,2013-07-13 06:46:00,
2013-07-13 02:51:00,54.7,44.7,30.68,NE,45,0.0,0.0,69,0.00,,---,0.00,VWS V14.01,2013-07-13 06:51:00,
2013-07-13 02:56:00,54.7,44.7,30.68,NE,45,0.0,0.0,69,0.00,,---,0.00,VWS V14.01,2013-07-13 06:56:00,
2013-07-13 03:01:00,54.5,44.5,30.65,NE,45,0.0,0.0,69,0.00,,---,0.00,VWS V14.01,2013-07-13 07:01:00,
2013-07-13 03:06:00,54.5,44.5,30.65,NE,45,0.0,0.0,69,0.00,,---,0.00,VWS V14.01,2013-07-13 07:06:00,
2013-07-13 03:11:00,54.5,44.9,30.65,NE,45,0.0,0.0,70,0.00,,---,0.00,VWS V14.01,2013-07-13 07:11:00,
2013-07-13 03:16:00,54.3,44.8,30.68,NE,45,0.0,0.0,70,0.00,,---,0.00,VWS V14.01,2013-07-13 07:16:00,
2013-07-13 03:21:00,54.3,44.8,30.68,NE,45,0.0,0.0,70,0.00,,---,0.00,VWS V14.01,2013-07-13 07:21:00,
2013-07-13 03:26:00,54.1,44.6,30.68,NE,45,0.0,0.0,70,0.00,,---,0.00,VWS V14.01,2013-07-13 07:26:00,
2013-07-13 03:31:00,54.1,44.6,30.65,NE,45,0.0,0.0,70,0.00,,---,0.00,VWS V14.01,2013-07-13 07:31:00,
2013-07-13 03:36:00,54.1,44.6,30.65,NE,45,0.0,0.0,70,0.00,,---,0.00,VWS V14.01,2013-07-13 07:36:00,
2013-07-13 03:41:00,54.0,44.4,30.65,NE,45,0.0,0.0,70,0.00,,---,0.00,VWS V14.01,2013-07-13 07:41:00,
2013-07-13 03:46:00,53.8,44.2,30.65,NE,45,0.0,0.0,70,0.00,,---,0.00,VWS V14.01,2013-07-13 07:46:00,
2013-07-13 03:51:00,53.8,44.6,30.65,NE,45,0.0,0.0,71,0.00,,---,0.00,VWS V14.01,2013-07-13 07:51:00,
2013-07-13 03:56:00,53.8,44.6,30.65,NE,45,0.0,0.0,71,0.00,,---,0.00,VWS V14.01,2013-07-13 07:56:00,
2013-07-13 04:01:00,53.8,44.6,30.62,NE,45,0.0,0.0,71,0.00,,---,0.00,VWS V14.01,2013-07-13 08:01:00,
2013-07-13 04:06:00,53.6,44.4,30.62,NE,45,0.0,0.0,71,0.00,,---,0.00,VWS V14.01,2013-07-13 08:06:00,
2013-07-13 04:11:00,53.6,44.4,30.62,NE,45,0.0,0.0,71,0.00,,---,0.00,VWS V14.01,2013-07-13 08:11:00,
2013-07-13 04:16:00,53.4,44.3,30.62,NE,45,0.0,0.0,71,0.00,,---,0.00,VWS V14.01,2013-07-13 08:16:00,
2013-07-13 04:21:00,53.4,44.3,30.62,NE,45,0.0,0.0,71,0.00,,---,0.00,VWS V14.01,2013-07-13 08:21:00,
2013-07-13 04:26:00,53.4,44.6,30.62,NE,45,0.0,0.0,72,0.00,,---,0.00,VWS V14.01,2013-07-13 08:26:00,
2013-07-13 04:31:00,53.2,44.1,30.62,NE,45,0.0,0.0,71,0.00,,---,0.00,VWS V14.01,2013-07-13 08:31:00,
2013-07-13 04:36:00,53.2,44.5,30.62,NE,45,0.0,0.0,72,0.00,,---,0.00,VWS V14.01,2013-07-13 08:36:00,
2013-07-13 04:41:00,53.1,44.3,30.62,NE,45,0.0,0.0,72,0.00,,---,0.00,VWS V14.01,2013-07-13 08:41:00,
2013-07-13 04:46:00,53.1,44.3,30.62,NE,45,0.0,0.0,72,0.00,,---,0.00,VWS V14.01,2013-07-13 08:46:00,
2013-07-13 04:51:00,53.1,44.3,30.62,NE,45,0.0,0.0,72,0.00,,---,0.00,VWS V14.01,2013-07-13 08:51:00,
2013-07-13 04:56:00,53.1,44.3,30.62,NE,45,0.0,0.0,72,0.00,,---,0.00,VWS V14.01,2013-07-13 08:56:00,
2013-07-13 05:01:00,53.1,44.3,30.62,NE,45,0.0,0.0,72,0.00,,---,0.00,VWS V14.01,2013-07-13 09:01:00,
2013-07-13 05:06:00,52.9,44.1,30.62,NE,45,0.0,0.0,72,0.00,,---,0.00,VWS V14.01,2013-07-13 09:06:00,
2013-07-13 05:11:00,52.9,44.5,30.62,NE,45,0.0,0.0,73,0.00,,---,0.00,VWS V14.01,2013-07-13 09:11:00,
2013-07-13 05:16:00,52.9,44.5,30.62,NE,45,0.0,0.0,73,0.00,,---,0.00,VWS V14.01,2013-07-13 09:16:00,
2013-07-13 05:21:00,52.9,44.5,30.62,NE,45,0.0,0.0,73,0.00,,---,0.00,VWS V14.01,2013-07-13 09:21:00,
2013-07-13 05:26:00,52.7,43.9,30.62,NE,45,0.0,0.0,72,0.00,,---,0.00,VWS V14.01,2013-07-13 09:26:00,
2013-07-13 05:31:00,52.7,43.9,30.62,NE,45,0.0,0.0,72,0.00,,---,0.00,VWS V14.01,2013-07-13 09:31:00,
2013-07-13 05:36:00,52.7,43.9,30.62,NE,45,0.0,0.0,72,0.00,,---,0.00,VWS V14.01,2013-07-13 09:36:00,
2013-07-13 05:41:00,52.5,43.8,30.62,NE,45,0.0,0.0,72,0.00,,---,0.00,VWS V14.01,2013-07-13 09:41:00,
2013-07-13 05:46:00,52.5,44.1,30.62,NE,45,0.0,0.0,73,0.00,,---,0.00,VWS V14.01,2013-07-13 09:46:00,
2013-07-13 05:51:00,52.7,44.3,30.62,NE,45,0.0,0.0,73,0.00,,---,0.00,VWS V14.01,2013-07-13 09:51:00,
2013-07-13 05:56:00,52.5,44.1,30.62,NE,45,0.0,0.0,73,0.00,,---,0.00,VWS V14.01,2013-07-13 09:56:00,
2013-07-13 06:01:00,52.7,44.3,30.62,NE,45,0.0,0.0,73,0.00,,---,0.00,VWS V14.01,2013-07-13 10:01:00,
2013-07-13 06:06:00,52.7,44.3,30.62,NE,45,0.0,0.0,73,0.00,,---,0.00,VWS V14.01,2013-07-13 10:06:00,
2013-07-13 06:11:00,52.7,44.3,30.62,NE,45,0.0,0.0,73,0.00,,---,0.00,VWS V14.01,2013-07-13 10:11:00,
2013-07-13 06:16:00,53.1,44.7,30.65,NE,45,0.0,0.0,73,0.00,,---,0.00,VWS V14.01,2013-07-13 10:16:00,
2013-07-13 06:21:00,52.9,44.5,30.65,NE,45,0.0,0.0,73,0.00,,---,0.00,VWS V14.01,2013-07-13 10:21:00,
2013-07-13 06:26:00,53.1,44.7,30.65,NE,45,0.0,0.0,73,0.00,,---,0.00,VWS V14.01,2013-07-13 10:26:00,
2013-07-13 06:31:00,53.2,45.2,30.65,NE,45,0.0,0.0,74,0.00,,---,0.00,VWS V14.01,2013-07-13 10:31:00,
2013-07-13 06:36:00,53.4,45.0,30.65,NE,45,0.0,0.0,73,0.00,,---,0.00,VWS V14.01,2013-07-13 10:36:00,
2013-07-13 06:41:00,53.8,45.3,30.65,NE,45,0.0,0.0,73,0.00,,---,0.00,VWS V14.01,2013-07-13 10:41:00,
2013-07-13 06:46:00,54.0,45.9,30.68,NE,45,0.0,0.0,74,0.00,,---,0.00,VWS V14.01,2013-07-13 10:46:00,
2013-07-13 06:51:00,54.0,45.9,30.68,NE,45,0.0,0.0,74,0.00,,---,0.00,VWS V14.01,2013-07-13 10:51:00,
2013-07-13 06:56:00,54.0,45.9,30.68,NE,45,0.0,0.0,74,0.00,,---,0.00,VWS V14.01,2013-07-13 10:56:00,
2013-07-13 07:01:00,54.0,45.9,30.68,NE,45,0.0,0.0,74,0.00,,---,0.00,VWS V14.01,2013-07-13 11:01:00,
2013-07-13 07:06:00,54.9,47.1,30.68,NE,45,0.0,0.0,75,0.00,,---,0.00,VWS V14.01,2013-07-13 11:06:00,
2013-07-13 07:11:00,55.6,47.4,30.68,NE,45,0.0,0.0,74,0.00,,---,0.00,VWS V14.01,2013-07-13 11:11:00,
2013-07-13 07:16:00,55.8,47.6,30.68,NE,45,0.0,0.0,74,0.00,,---,0.00,VWS V14.01,2013-07-13 11:16:00,
2013-07-13 07:21:00,56.1,48.0,30.71,NE,45,0.0,0.0,74,0.00,,---,0.00,VWS V14.01,2013-07-13 11:21:00,
2013-07-13 07:26:00,56.5,48.3,30.71,NE,45,0.0,0.0,74,0.00,,---,0.00,VWS V14.01,2013-07-13 11:26:00,
2013-07-13 07:31:00,57.2,49.0,30.71,NE,45,0.0,0.0,74,0.00,,---,0.00,VWS V14.01,2013-07-13 11:31:00,
2013-07-13 07:36:00,57.7,49.5,30.74,NE,45,0.0,0.0,74,0.00,,---,0.00,VWS V14.01,2013-07-13 11:36:00,
2013-07-13 07:41:00,58.3,50.0,30.74,NE,45,0.0,0.0,74,0.00,,---,0.00,VWS V14.01,2013-07-13 11:41:00,
2013-07-13 07:45:00,58.5,50.2,30.74,NE,45,0.0,0.0,74,0.00,,---,0.00,VWS V14.01,2013-07-13 11:45:00,
2013-07-13 07:50:00,58.8,50.6,30.77,NE,45,0.0,0.0,74,0.00,,---,0.00,VWS V14.01,2013-07-13 11:50:00,
2013-07-13 07:55:00,59.9,51.6,30.77,NE,45,0.0,0.0,74,0.00,,---,0.00,VWS V14.01,2013-07-13 11:55:00,
2013-07-13 08:00:00,61.2,52.5,30.77,NE,45,0.0,0.0,73,0.00,,---,0.00,VWS V14.01,2013-07-13 12:00:00,
2013-07-13 08:05:00,62.4,53.7,30.83,NE,45,0.0,0.0,73,0.00,,---,0.00,VWS V14.01,2013-07-13 12:05:00,
2013-07-13 08:10:00,63.1,53.6,30.83,NNE,22,0.0,0.0,71,0.00,,---,0.00,VWS V14.01,2013-07-13 12:10:00,
2013-07-13 08:15:00,64.4,54.8,30.83,NNE,22,0.0,0.0,71,0.00,,---,0.00,VWS V14.01,2013-07-13 12:15:00,
2013-07-13 08:20:00,66.4,56.7,30.89,NNE,22,0.0,0.0,71,0.00,,---,0.00,VWS V14.01,2013-07-13 12:20:00,
2013-07-13 08:25:00,67.5,57.3,30.89,NNE,22,0.0,0.0,70,0.00,,---,0.00,VWS V14.01,2013-07-13 12:25:00,
2013-07-13 08:30:00,67.8,56.9,30.89,NNE,22,0.0,0.0,68,0.00,,---,0.00,VWS V14.01,2013-07-13 12:30:00,
2013-07-13 08:35:00,70.0,58.5,30.92,NNE,22,0.0,0.0,67,0.00,,---,0.00,VWS V14.01,2013-07-13 12:35:00,
2013-07-13 08:40:00,70.5,58.2,30.92,NNE,22,0.0,0.0,65,0.00,,---,0.00,VWS V14.01,2013-07-13 12:40:00,
2013-07-13 08:45:00,70.0,57.3,30.92,NNE,22,0.0,0.0,64,0.00,,---,0.00,VWS V14.01,2013-07-13 12:45:00,
2013-07-13 08:50:00,70.0,56.4,30.98,NNE,22,0.0,0.0,62,0.00,,---,0.00,VWS V14.01,2013-07-13 12:50:00,
2013-07-13 08:57:00,72.7,58.0,30.98,NNE,22,0.0,0.0,60,0.00,,---,0.00,VWS V14.01,2013-07-13 12:57:00,
2013-07-13 09:02:00,73.8,57.6,31.01,NNE,22,0.0,0.0,57,0.00,,---,0.00,VWS V14.01,2013-07-13 13:02:00,
2013-07-13 09:07:00,74.7,57.9,31.01,NNE,22,0.0,0.0,56,0.00,,---,0.00,VWS V14.01,2013-07-13 13:07:00,
2013-07-13 09:12:00,76.1,58.8,31.01,NNE,22,0.0,0.0,55,0.00,,---,0.00,VWS V14.01,2013-07-13 13:12:00,
2013-07-13 09:17:00,77.2,58.2,31.01,NNE,22,0.0,0.0,52,0.00,,---,0.00,VWS V14.01,2013-07-13 13:17:00,
2013-07-13 09:22:00,77.7,57.6,31.01,NNE,22,0.0,0.0,50,0.00,,---,0.00,VWS V14.01,2013-07-13 13:22:00,
2013-07-13 09:27:00,78.4,57.7,31.01,NNE,22,0.0,0.0,49,0.00,,---,0.00,VWS V14.01,2013-07-13 13:27:00,
2013-07-13 09:32:00,80.4,58.4,31.01,NNE,22,0.0,0.0,47,0.00,,---,0.00,VWS V14.01,2013-07-13 13:32:00,
2013-07-13 09:37:00,81.1,59.6,31.01,NNE,22,0.0,0.0,48,0.00,,---,0.00,VWS V14.01,2013-07-13 13:37:00,
2013-07-13 09:42:00,82.8,59.9,31.01,NNE,22,0.0,0.0,46,0.00,,---,0.00,VWS V14.01,2013-07-13 13:42:00,
2013-07-13 09:47:00,83.8,58.3,31.01,NNE,22,0.0,0.0,42,0.00,,---,0.00,VWS V14.01,2013-07-13 13:47:00,
2013-07-13 09:52:00,84.6,58.3,31.01,NNE,22,0.0,0.0,41,0.00,,---,0.00,VWS V14.01,2013-07-13 13:52:00,
2013-07-13 09:57:00,85.1,58.8,31.01,NNE,22,0.0,0.0,41,0.00,,---,0.00,VWS V14.01,2013-07-13 13:57:00,
2013-07-13 10:01:00,85.1,57.4,31.01,NW,315,2.5,2.5,39,0.00,,---,0.00,VWS V14.01,2013-07-13 14:01:00,
2013-07-13 10:06:00,84.7,56.3,31.01,ENE,68,2.0,2.0,38,0.00,,---,0.00,VWS V14.01,2013-07-13 14:06:00,
2013-07-13 10:11:00,84.4,52.2,31.01,NE,45,2.0,2.0,33,0.00,,---,0.00,VWS V14.01,2013-07-13 14:11:00,
2013-07-13 10:16:00,85.5,57.0,31.01,SSE,158,0.0,0.0,38,0.00,,---,0.00,VWS V14.01,2013-07-13 14:16:00,
2013-07-13 10:21:00,88.0,59.2,31.01,ESE,112,0.0,0.0,38,0.00,,---,0.00,VWS V14.01,2013-07-13 14:21:00,
2013-07-13 10:27:00,87.1,54.5,31.01,ENE,68,0.0,0.0,33,0.00,,---,0.00,VWS V14.01,2013-07-13 14:27:00,
2013-07-13 10:32:00,87.4,55.7,31.01,WNW,292,2.9,2.9,34,0.00,,---,0.00,VWS V14.01,2013-07-13 14:32:00,
2013-07-13 10:37:00,87.4,55.7,31.01,North,0,2.0,2.0,34,0.00,,---,0.00,VWS V14.01,2013-07-13 14:37:00,
2013-07-13 10:42:00,87.4,55.7,31.01,WNW,292,0.0,2.5,34,0.00,,---,0.00,VWS V14.01,2013-07-13 14:42:00,
2013-07-13 10:46:00,87.4,55.7,31.01,WSW,248,0.0,0.0,34,0.00,,---,0.00,VWS V14.01,2013-07-13 14:46:00,
2013-07-13 10:51:00,87.4,55.7,31.01,NNE,22,1.3,5.4,34,0.00,,---,0.00,VWS V14.01,2013-07-13 14:51:00,
2013-07-13 10:56:00,87.4,55.7,31.01,ENE,68,0.0,0.0,34,0.00,,---,0.00,VWS V14.01,2013-07-13 14:56:00,
2013-07-13 11:01:00,87.4,55.7,31.01,ENE,68,0.0,0.0,34,0.00,,---,0.00,VWS V14.01,2013-07-13 15:01:00,
2013-07-13 11:06:00,87.4,55.7,31.01,WNW,292,1.1,3.8,34,0.00,,---,0.00,VWS V14.01,2013-07-13 15:06:00,
2013-07-13 11:11:00,87.4,55.7,31.01,WNW,292,3.8,3.8,34,0.00,,---,0.00,VWS V14.01,2013-07-13 15:11:00,
2013-07-13 11:16:00,86.7,52.5,31.01,WNW,292,2.5,2.5,31,0.00,,---,0.00,VWS V14.01,2013-07-13 15:16:00,
2013-07-13 11:21:00,86.7,50.7,31.01,WNW,292,0.0,0.0,29,0.00,,---,0.00,VWS V14.01,2013-07-13 15:21:00,
2013-07-13 11:26:00,87.1,51.9,31.01,WNW,292,2.2,2.2,30,0.00,,---,0.00,VWS V14.01,2013-07-13 15:26:00,
2013-07-13 11:31:00,88.2,51.0,31.01,WSW,248,6.3,6.3,28,0.00,,---,0.00,VWS V14.01,2013-07-13 15:31:00,
2013-07-13 11:36:00,87.6,51.5,31.01,WSW,248,4.3,4.9,29,0.00,,---,0.00,VWS V14.01,2013-07-13 15:36:00,
2013-07-13 11:41:00,87.6,51.5,31.01,West,270,5.4,5.4,29,0.00,,---,0.00,VWS V14.01,2013-07-13 15:41:00,
2013-07-13 11:46:00,88.2,51.0,31.01,WNW,292,3.8,3.8,28,0.00,,---,0.00,VWS V14.01,2013-07-13 15:46:00,
2013-07-13 11:51:00,88.2,51.0,31.01,WNW,292,4.0,4.0,28,0.00,,---,0.00,VWS V14.01,2013-07-13 15:51:00,
2013-07-13 11:56:00,88.0,50.8,31.01,WSW,248,3.8,3.8,28,0.00,,---,0.00,VWS V14.01,2013-07-13 15:56:00,
2013-07-13 12:01:00,86.5,48.6,31.01,West,270,3.6,3.6,27,0.00,,---,0.00,VWS V14.01,2013-07-13 16:01:00,
2013-07-13 12:06:00,88.5,52.2,31.01,West,270,3.4,3.4,29,0.00,,---,0.00,VWS V14.01,2013-07-13 16:06:00,
2013-07-13 12:11:00,87.3,52.1,31.01,West,270,0.0,0.0,30,0.00,,---,0.00,VWS V14.01,2013-07-13 16:11:00,
2013-07-13 12:16:00,85.8,50.8,31.01,NW,315,0.0,0.0,30,0.00,,---,0.00,VWS V14.01,2013-07-13 16:16:00,
2013-07-13 12:21:00,86.5,51.5,31.01,NW,315,1.1,1.1,30,0.00,,---,0.00,VWS V14.01,2013-07-13 16:21:00,
2013-07-13 12:26:00,86.2,52.0,31.01,NW,315,0.9,0.9,31,0.00,,---,0.00,VWS V14.01,2013-07-13 16:26:00,
2013-07-13 12:31:00,86.2,52.0,31.01,NW,315,0.0,0.0,31,0.00,,---,0.00,VWS V14.01,2013-07-13 16:31:00,
2013-07-13 12:36:00,87.6,53.3,31.01,NW,315,0.0,0.0,31,0.00,,---,0.00,VWS V14.01,2013-07-13 16:36:00,
2013-07-13 12:41:00,88.7,55.9,31.01,NW,315,0.0,0.0,33,0.00,,---,0.00,VWS V14.01,2013-07-13 16:41:00,
2013-07-13 12:46:00,88.7,53.3,31.01,NW,315,0.9,0.9,30,0.00,,---,0.00,VWS V14.01,2013-07-13 16:46:00,
2013-07-13 12:51:00,87.8,50.7,31.01,NW,315,2.2,2.2,28,0.00,,---,0.00,VWS V14.01,2013-07-13 16:51:00,
2013-07-13 12:56:00,90.0,52.5,31.01,West,270,1.3,1.3,28,0.00,,---,0.00,VWS V14.01,2013-07-13 16:56:00,
2013-07-13 13:01:00,89.8,54.2,31.01,West,270,1.1,1.1,30,0.00,,---,0.00,VWS V14.01,2013-07-13 17:01:00,
2013-07-13 13:06:00,90.5,53.9,31.01,WSW,248,0.0,0.0,29,0.00,,---,0.00,VWS V14.01,2013-07-13 17:06:00,
2013-07-13 13:11:00,89.8,53.3,31.01,West,270,2.5,2.5,29,0.00,,---,0.00,VWS V14.01,2013-07-13 17:11:00,
2013-07-13 13:16:00,87.1,50.1,31.01,West,270,3.1,3.1,28,0.00,,---,0.00,VWS V14.01,2013-07-13 17:16:00,
2013-07-13 13:21:00,88.3,52.1,31.01,WNW,292,0.0,0.0,29,0.00,,---,0.00,VWS V14.01,2013-07-13 17:21:00,
2013-07-13 13:26:00,85.8,49.9,31.01,WNW,292,3.6,3.6,29,0.00,,---,0.00,VWS V14.01,2013-07-13 17:26:00,
2013-07-13 13:31:00,84.0,48.4,31.01,WNW,292,0.0,0.0,29,0.00,,---,0.00,VWS V14.01,2013-07-13 17:31:00,
2013-07-13 13:36:00,84.2,49.4,31.01,West,270,0.0,0.0,30,0.00,,---,0.00,VWS V14.01,2013-07-13 17:36:00,
2013-07-13 13:41:00,84.6,48.8,31.01,West,270,2.0,2.0,29,0.00,,---,0.00,VWS V14.01,2013-07-13 17:41:00,
2013-07-13 13:46:00,86.7,50.7,31.01,NE,45,1.6,2.7,29,0.00,,---,0.00,VWS V14.01,2013-07-13 17:46:00,
2013-07-13 13:51:00,84.7,49.0,31.01,WNW,292,0.0,2.5,29,0.00,,---,0.00,VWS V14.01,2013-07-13 17:51:00,
2013-07-13 13:56:00,85.8,49.9,31.01,WNW,292,0.0,0.0,29,0.00,,---,0.00,VWS V14.01,2013-07-13 17:56:00,
2013-07-13 14:01:00,84.9,49.2,31.01,WNW,292,3.4,3.4,29,0.00,,---,0.00,VWS V14.01,2013-07-13 18:01:00,
2013-07-13 14:06:00,85.3,50.4,31.01,West,270,2.5,2.5,30,0.00,,---,0.00,VWS V14.01,2013-07-13 18:06:00,
2013-07-13 14:11:00,86.9,51.8,31.01,West,270,3.4,3.4,30,0.00,,---,0.00,VWS V14.01,2013-07-13 18:11:00,
2013-07-13 14:16:00,85.1,50.2,30.95,WNW,292,0.0,0.0,30,0.00,,---,0.00,VWS V14.01,2013-07-13 18:16:00,
2013-07-13 14:21:00,85.5,50.5,30.95,WNW,292,1.1,1.1,30,0.00,,---,0.00,VWS V14.01,2013-07-13 18:21:00,
2013-07-13 14:26:00,84.9,50.1,30.95,West,270,1.1,4.7,30,0.00,,---,0.00,VWS V14.01,2013-07-13 18:26:00,
2013-07-13 14:31:00,84.4,48.7,31.01,WNW,292,4.0,4.0,29,0.00,,---,0.00,VWS V14.01,2013-07-13 18:31:00,
2013-07-13 14:36:00,84.7,50.8,31.01,West,270,0.0,2.5,31,0.00,,---,0.00,VWS V14.01,2013-07-13 18:36:00,
2013-07-13 14:41:00,86.4,51.3,31.01,ENE,68,2.0,2.5,30,0.00,,---,0.00,VWS V14.01,2013-07-13 18:41:00,
2013-07-13 14:46:00,84.0,49.3,30.98,ENE,68,2.0,2.0,30,0.00,,---,0.00,VWS V14.01,2013-07-13 18:46:00,
2013-07-13 14:51:00,84.6,49.8,30.98,North,0,1.3,1.3,30,0.00,,---,0.00,VWS V14.01,2013-07-13 18:51:00,
2013-07-13 14:56:00,82.9,48.3,30.98,West,270,2.9,3.8,30,0.00,,---,0.00,VWS V14.01,2013-07-13 18:56:00,
2013-07-13 15:01:00,82.9,49.2,30.86,WSW,248,2.7,4.7,31,0.00,,---,0.00,VWS V14.01,2013-07-13 19:01:00,
2013-07-13 15:06:00,83.5,50.5,30.86,WNW,292,3.6,3.6,32,0.00,,---,0.00,VWS V14.01,2013-07-13 19:06:00,
2013-07-13 15:11:00,82.9,49.2,30.86,WNW,292,0.0,0.0,31,0.00,,---,0.00,VWS V14.01,2013-07-13 19:11:00,
2013-07-13 15:16:00,83.5,50.5,30.92,WNW,292,4.5,4.5,32,0.00,,---,0.00,VWS V14.01,2013-07-13 19:16:00,
2013-07-13 15:21:00,83.8,50.9,30.92,West,270,5.6,5.6,32,0.00,,---,0.00,VWS V14.01,2013-07-13 19:21:00,
2013-07-13 15:26:00,83.3,48.7,30.92,WNW,292,3.1,4.7,30,0.00,,---,0.00,VWS V14.01,2013-07-13 19:26:00,
2013-07-13 15:31:00,82.6,48.0,30.86,WSW,248,5.6,5.6,30,0.00,,---,0.00,VWS V14.01,2013-07-13 19:31:00,
2013-07-13 15:36:00,82.9,50.1,30.86,WNW,292,4.0,4.0,32,0.00,,---,0.00,VWS V14.01,2013-07-13 19:36:00,
2013-07-13 15:41:00,82.9,51.7,30.86,WNW,292,2.0,2.2,34,0.00,,---,0.00,VWS V14.01,2013-07-13 19:41:00,
2013-07-13 15:46:00,82.4,51.2,30.95,West,270,4.3,4.3,34,0.00,,---,0.00,VWS V14.01,2013-07-13 19:46:00,
2013-07-13 15:51:00,82.0,51.7,30.95,West,270,3.1,3.1,35,0.00,,---,0.00,VWS V14.01,2013-07-13 19:51:00,
2013-07-13 15:56:00,81.3,50.3,30.95,WSW,248,4.3,4.3,34,0.00,,---,0.00,VWS V14.01,2013-07-13 19:56:00,
2013-07-13 16:01:00,81.1,51.7,30.95,West,270,2.5,2.5,36,0.00,,---,0.00,VWS V14.01,2013-07-13 20:01:00,
2013-07-13 16:06:00,80.2,50.1,30.95,WNW,292,2.2,3.1,35,0.00,,---,0.00,VWS V14.01,2013-07-13 20:06:00,
2013-07-13 16:11:00,80.2,51.6,30.95,WNW,292,0.0,1.3,37,0.00,,---,0.00,VWS V14.01,2013-07-13 20:11:00,
2013-07-13 16:16:00,79.7,50.4,30.95,WSW,248,1.3,3.1,36,0.00,,---,0.00,VWS V14.01,2013-07-13 20:16:00,
2013-07-13 16:21:00,78.6,51.6,30.95,NNW,338,0.0,0.0,39,0.00,,---,0.00,VWS V14.01,2013-07-13 20:21:00,
2013-07-13 16:26:00,78.8,52.5,30.95,NNW,338,0.0,0.0,40,0.00,,---,0.00,VWS V14.01,2013-07-13 20:26:00,
2013-07-13 16:31:00,79.2,52.8,30.95,NNW,338,0.0,0.0,40,0.00,,---,0.00,VWS V14.01,2013-07-13 20:31:00,
2013-07-13 16:35:00,79.7,53.9,30.98,WSW,248,0.0,0.0,41,0.00,,---,0.00,VWS V14.01,2013-07-13 20:35:00,
2013-07-13 16:40:00,80.1,53.6,30.98,SW,225,0.0,0.0,40,0.00,,---,0.00,VWS V14.01,2013-07-13 20:40:00,
2013-07-13 16:45:00,81.3,54.7,30.98,WNW,292,0.0,0.0,40,0.00,,---,0.00,VWS V14.01,2013-07-13 20:45:00,
2013-07-13 16:50:00,82.4,54.3,31.01,WSW,248,2.5,2.5,38,0.00,,---,0.00,VWS V14.01,2013-07-13 20:50:00,
2013-07-13 16:55:00,81.7,54.3,31.01,WSW,248,2.5,2.5,39,0.00,,---,0.00,VWS V14.01,2013-07-13 20:55:00,
2013-07-13 17:00:00,81.5,52.7,31.01,WSW,248,3.4,3.4,37,0.00,,---,0.00,VWS V14.01,2013-07-13 21:00:00,
2013-07-13 17:05:00,81.0,53.0,31.01,WNW,292,2.5,2.7,38,0.00,,---,0.00,VWS V14.01,2013-07-13 21:05:00,
2013-07-13 17:10:00,79.7,51.9,31.01,WNW,292,0.0,0.0,38,0.00,,---,0.00,VWS V14.01,2013-07-13 21:10:00,
2013-07-13 17:15:00,78.8,52.5,31.01,WNW,292,0.0,0.0,40,0.00,,---,0.00,VWS V14.01,2013-07-13 21:15:00,
2013-07-13 17:20:00,78.4,50.8,31.01,WNW,292,1.3,2.0,38,0.00,,---,0.00,VWS V14.01,2013-07-13 21:20:00,
2013-07-13 17:25:00,78.6,53.0,31.01,North,0,2.0,2.0,41,0.00,,---,0.00,VWS V14.01,2013-07-13 21:25:00,
2013-07-13 17:30:00,78.8,52.5,31.01,WNW,292,3.4,4.9,40,0.00,,---,0.00,VWS V14.01,2013-07-13 21:30:00,
2013-07-13 17:35:00,78.4,52.1,30.98,NNW,338,2.5,2.5,40,0.00,,---,0.00,VWS V14.01,2013-07-13 21:35:00,
2013-07-13 17:40:00,78.1,52.5,30.98,WNW,292,0.0,0.0,41,0.00,,---,0.00,VWS V14.01,2013-07-13 21:40:00,
2013-07-13 17:45:00,78.1,53.2,30.98,ESE,112,0.0,1.1,42,0.00,,---,0.00,VWS V14.01,2013-07-13 21:45:00,
2013-07-13 17:50:00,78.1,51.8,30.95,West,270,2.9,2.9,40,0.00,,---,0.00,VWS V14.01,2013-07-13 21:50:00,
2013-07-13 17:55:00,78.1,51.8,30.95,NNW,338,3.6,3.6,40,0.00,,---,0.00,VWS V14.01,2013-07-13 21:55:00,
2013-07-13 18:00:00,77.9,51.7,30.95,WNW,292,3.1,3.1,40,0.00,,---,0.00,VWS V14.01,2013-07-13 22:00:00,
2013-07-13 18:05:00,77.7,52.2,30.89,WSW,248,2.9,2.9,41,0.00,,---,0.00,VWS V14.01,2013-07-13 22:05:00,
2013-07-13 18:10:00,77.9,52.3,30.89,West,270,3.1,3.1,41,0.00,,---,0.00,VWS V14.01,2013-07-13 22:10:00,
2013-07-13 18:15:00,77.9,52.3,30.89,WNW,292,1.3,1.3,41,0.00,,---,0.00,VWS V14.01,2013-07-13 22:15:00,
2013-07-13 18:20:00,78.8,53.1,30.86,WSW,248,2.5,2.5,41,0.00,,---,0.00,VWS V14.01,2013-07-13 22:20:00,
2013-07-13 18:25:00,78.8,53.1,30.86,WSW,248,4.3,4.3,41,0.00,,---,0.00,VWS V14.01,2013-07-13 22:25:00,
2013-07-13 18:30:00,78.1,52.5,30.86,WSW,248,2.0,2.0,41,0.00,,---,0.00,VWS V14.01,2013-07-13 22:30:00,
2013-07-13 18:35:00,77.9,53.0,30.89,WSW,248,2.0,2.0,42,0.00,,---,0.00,VWS V14.01,2013-07-13 22:35:00,
2013-07-13 18:40:00,78.1,52.5,30.89,WSW,248,2.0,2.0,41,0.00,,---,0.00,VWS V14.01,2013-07-13 22:40:00,
2013-07-13 18:45:00,77.7,52.8,30.89,WSW,248,2.0,2.0,42,0.00,,---,0.00,VWS V14.01,2013-07-13 22:45:00,
2013-07-13 18:50:00,76.6,53.1,30.89,WSW,248,2.0,2.0,44,0.00,,---,0.00,VWS V14.01,2013-07-13 22:50:00,
2013-07-13 18:55:00,76.1,53.2,30.89,WSW,248,2.0,2.0,45,0.00,,---,0.00,VWS V14.01,2013-07-13 22:55:00,
2013-07-13 19:00:00,76.1,53.2,30.89,WNW,292,0.0,0.0,45,0.00,,---,0.00,VWS V14.01,2013-07-13 23:00:00,
2013-07-13 19:05:00,74.8,53.3,30.92,WNW,292,0.0,0.0,47,0.00,,---,0.00,VWS V14.01,2013-07-13 23:05:00,
2013-07-13 19:10:00,74.3,53.9,30.92,WNW,292,0.0,0.0,49,0.00,,---,0.00,VWS V14.01,2013-07-13 23:10:00,
2013-07-13 19:15:00,73.9,53.0,30.92,WNW,292,0.0,0.0,48,0.00,,---,0.00,VWS V14.01,2013-07-13 23:15:00,
2013-07-13 19:20:00,73.6,54.4,31.01,WNW,292,0.0,0.0,51,0.00,,---,0.00,VWS V14.01,2013-07-13 23:20:00,
2013-07-13 19:25:00,73.4,53.7,31.01,WNW,292,0.0,0.0,50,0.00,,---,0.00,VWS V14.01,2013-07-13 23:25:00,
2013-07-13 19:30:00,73.2,54.0,31.01,WNW,292,0.0,0.0,51,0.00,,---,0.00,VWS V14.01,2013-07-13 23:30:00,
2013-07-13 19:35:00,73.0,53.3,31.01,WNW,292,0.0,0.0,50,0.00,,---,0.00,VWS V14.01,2013-07-13 23:35:00,
2013-07-13 19:40:00,72.9,54.8,31.01,WNW,292,0.0,0.0,53,0.00,,---,0.00,VWS V14.01,2013-07-13 23:40:00,
2013-07-13 19:45:00,72.5,54.9,31.01,WNW,292,0.0,0.0,54,0.00,,---,0.00,VWS V14.01,2013-07-13 23:45:00,
2013-07-13 19:50:00,72.1,54.6,31.01,NW,315,0.0,0.0,54,0.00,,---,0.00,VWS V14.01,2013-07-13 23:50:00,
2013-07-13 19:55:00,72.0,54.9,31.01,NW,315,0.0,0.0,55,0.00,,---,0.00,VWS V14.01,2013-07-13 23:55:00,
2013-07-13 20:00:00,71.8,55.3,31.01,NW,315,0.0,0.0,56,0.00,,---,0.00,VWS V14.01,2013-07-14 00:00:00,
2013-07-13 20:05:00,71.6,56.1,31.01,NNW,338,0.0,0.0,58,0.00,,---,0.00,VWS V14.01,2013-07-14 00:05:00,
2013-07-13 20:10:00,71.4,55.9,31.01,NNW,338,0.0,0.0,58,0.00,,---,0.00,VWS V14.01,2013-07-14 00:10:00,
2013-07-13 20:15:00,71.2,55.2,31.01,NNW,338,0.0,0.0,57,0.00,,---,0.00,VWS V14.01,2013-07-14 00:15:00,
2013-07-13 20:20:00,71.1,56.0,31.01,NNW,338,0.0,0.0,59,0.00,,---,0.00,VWS V14.01,2013-07-14 00:20:00,
2013-07-13 20:25:00,70.9,55.8,31.01,NNW,338,0.0,0.0,59,0.00,,---,0.00,VWS V14.01,2013-07-14 00:25:00,
2013-07-13 20:30:00,70.5,56.4,31.01,NNW,338,0.0,0.0,61,0.00,,---,0.00,VWS V14.01,2013-07-14 00:30:00,
2013-07-13 20:35:00,70.3,56.3,31.01,NNE,22,0.0,0.0,61,0.00,,---,0.00,VWS V14.01,2013-07-14 00:35:00,
2013-07-13 20:40:00,70.2,55.6,31.01,NNE,22,0.0,0.0,60,0.00,,---,0.00,VWS V14.01,2013-07-14 00:40:00,
2013-07-13 20:45:00,70.0,56.8,31.01,NNE,22,0.0,0.0,63,0.00,,---,0.00,VWS V14.01,2013-07-14 00:45:00,
2013-07-13 20:50:00,69.8,56.7,31.01,NNE,22,0.0,0.0,63,0.00,,---,0.00,VWS V14.01,2013-07-14 00:50:00,
2013-07-13 20:55:00,69.6,56.5,31.01,NNE,22,0.0,0.0,63,0.00,,---,0.00,VWS V14.01,2013-07-14 00:55:00,
2013-07-13 21:00:00,69.4,56.3,31.01,NNE,22,0.0,0.0,63,0.00,,---,0.00,VWS V14.01,2013-07-14 01:00:00,
2013-07-13 21:05:00,69.3,56.6,31.01,NNE,22,0.0,0.0,64,0.00,,---,0.00,VWS V14.01,2013-07-14 01:05:00,
2013-07-13 21:10:00,69.3,56.1,31.01,NNE,22,0.0,0.0,63,0.00,,---,0.00,VWS V14.01,2013-07-14 01:10:00,
2013-07-13 21:15:00,68.9,55.8,31.01,NNE,22,0.0,0.0,63,0.00,,---,0.00,VWS V14.01,2013-07-14 01:15:00,
2013-07-13 21:20:00,68.9,55.8,31.01,NNE,22,0.0,0.0,63,0.00,,---,0.00,VWS V14.01,2013-07-14 01:20:00,
2013-07-13 21:25:00,68.7,55.6,31.01,NNE,22,0.0,0.0,63,0.00,,---,0.00,VWS V14.01,2013-07-14 01:25:00,
2013-07-13 21:30:00,68.5,55.5,31.01,NNE,22,0.0,0.0,63,0.00,,---,0.00,VWS V14.01,2013-07-14 01:30:00,
2013-07-13 21:35:00,68.4,55.3,31.01,NNE,22,0.0,0.0,63,0.00,,---,0.00,VWS V14.01,2013-07-14 01:35:00,
2013-07-13 21:40:00,68.4,56.2,31.01,NNE,22,0.0,0.0,65,0.00,,---,0.00,VWS V14.01,2013-07-14 01:40:00,
2013-07-13 21:45:00,68.4,56.2,31.01,NNE,22,0.0,0.0,65,0.00,,---,0.00,VWS V14.01,2013-07-14 01:45:00,
2013-07-13 21:50:00,68.4,56.2,31.01,NNE,22,0.0,0.0,65,0.00,,---,0.00,VWS V14.01,2013-07-14 01:50:00,
2013-07-13 21:55:00,68.2,56.0,31.01,NNE,22,0.0,0.0,65,0.00,,---,0.00,VWS V14.01,2013-07-14 01:55:00,
2013-07-13 22:00:00,68.2,56.0,31.01,NNE,22,0.0,0.0,65,0.00,,---,0.00,VWS V14.01,2013-07-14 02:00:00,
2013-07-13 22:05:00,68.0,55.4,31.01,NNE,22,0.0,0.0,64,0.00,,---,0.00,VWS V14.01,2013-07-14 02:05:00,
2013-07-13 22:10:00,67.8,55.6,31.01,NNE,22,0.0,0.0,65,0.00,,---,0.00,VWS V14.01,2013-07-14 02:10:00,
2013-07-13 22:15:00,67.6,55.0,31.01,NNE,22,0.0,0.0,64,0.00,,---,0.00,VWS V14.01,2013-07-14 02:15:00,
2013-07-13 22:20:00,67.3,55.1,31.01,NNE,22,0.0,0.0,65,0.00,,---,0.00,VWS V14.01,2013-07-14 02:20:00,
2013-07-13 22:25:00,67.1,55.0,31.01,NNE,22,0.0,0.0,65,0.00,,---,0.00,VWS V14.01,2013-07-14 02:25:00,
2013-07-13 22:30:00,66.9,54.4,31.01,NNE,22,0.0,0.0,64,0.00,,---,0.00,VWS V14.01,2013-07-14 02:30:00,
2013-07-13 22:35:00,66.7,54.2,31.01,NNE,22,0.0,0.0,64,0.00,,---,0.00,VWS V14.01,2013-07-14 02:35:00,
2013-07-13 22:40:00,66.6,54.4,31.01,NNE,22,0.0,0.0,65,0.00,,---,0.00,VWS V14.01,2013-07-14 02:40:00,
2013-07-13 22:45:00,66.4,54.3,31.01,NNE,22,0.0,0.0,65,0.00,,---,0.00,VWS V14.01,2013-07-14 02:45:00,
2013-07-13 22:50:00,66.4,54.3,31.01,NNE,22,0.0,0.0,65,0.00,,---,0.00,VWS V14.01,2013-07-14 02:50:00,
2013-07-13 22:55:00,66.2,54.1,31.01,NNE,22,0.0,0.0,65,0.00,,---,0.00,VWS V14.01,2013-07-14 02:55:00,
2013-07-13 23:00:00,66.0,54.8,31.01,NNE,22,0.0,0.0,67,0.00,,---,0.00,VWS V14.01,2013-07-14 03:00:00,
2013-07-13 23:05:00,65.8,54.2,31.01,NNE,22,0.0,0.0,66,0.00,,---,0.00,VWS V14.01,2013-07-14 03:05:00,
2013-07-13 23:10:00,65.8,54.2,31.01,NNE,22,0.0,0.0,66,0.00,,---,0.00,VWS V14.01,2013-07-14 03:10:00,
2013-07-13 23:15:00,65.8,54.6,31.01,NNE,22,0.0,0.0,67,0.00,,---,0.00,VWS V14.01,2013-07-14 03:15:00,
2013-07-13 23:20:00,65.7,54.4,31.01,NNE,22,0.0,0.0,67,0.00,,---,0.00,VWS V14.01,2013-07-14 03:20:00,
2013-07-13 23:25:00,65.5,54.2,31.01,NNE,22,0.0,0.0,67,0.00,,---,0.00,VWS V14.01,2013-07-14 03:25:00,
2013-07-13 23:30:00,65.5,54.7,31.01,NNE,22,0.0,0.0,68,0.00,,---,0.00,VWS V14.01,2013-07-14 03:30:00,
2013-07-13 23:35:00,65.3,54.5,31.01,NNE,22,0.0,0.0,68,0.00,,---,0.00,VWS V14.01,2013-07-14 03:35:00,
2013-07-13 23:40:00,65.3,54.5,31.01,NNE,22,0.0,0.0,68,0.00,,---,0.00,VWS V14.01,2013-07-14 03:40:00,
2013-07-13 23:45:00,65.1,54.3,31.01,NNE,22,0.0,0.0,68,0.00,,---,0.00,VWS V14.01,2013-07-14 03:45:00,
2013-07-13 23:50:00,65.1,54.3,31.01,NNE,22,0.0,0.0,68,0.00,,---,0.00,VWS V14.01,2013-07-14 03:50:00,
2013-07-13 23:55:00,64.9,54.1,31.01,NNE,22,0.0,0.0,68,0.00,,---,0.00,VWS V14.01,2013-07-14 03:55:00,